createdAt,value
2019-04-01T00:02:48.323Z,6.23
2019-04-01T00:07:42.343Z,6.08
2019-04-01T00:12:36.544Z,6.13
2019-04-01T00:17:30.531Z,6.12
2019-04-01T00:22:24.509Z,6.04
2019-04-01T00:27:18.469Z,5.90
2019-04-01T00:32:12.435Z,5.83
2019-04-01T00:37:06.405Z,5.64
2019-04-01T00:42:04.870Z,5.58
2019-04-01T00:46:58.861Z,5.48
2019-04-01T00:51:52.837Z,5.34
2019-04-01T00:56:46.820Z,5.34
2019-04-01T01:01:40.903Z,5.16
2019-04-01T01:06:34.908Z,5.11
2019-04-01T01:11:28.885Z,5.06
2019-04-01T01:16:22.853Z,5.07
2019-04-01T01:21:17.021Z,5.09
2019-04-01T01:26:11.202Z,5.06
2019-04-01T01:31:05.179Z,4.93
2019-04-01T01:35:59.230Z,4.89
2019-04-01T01:40:53.205Z,4.88
2019-04-01T01:45:47.195Z,4.76
2019-04-01T01:50:41.173Z,4.91
2019-04-01T01:55:35.192Z,4.89
2019-04-01T02:00:30.301Z,4.79
2019-04-01T02:05:24.722Z,4.69
2019-04-01T02:10:18.777Z,4.52
2019-04-01T02:15:12.859Z,4.57
2019-04-01T02:20:06.946Z,4.43
2019-04-01T02:25:00.947Z,4.31
2019-04-01T02:29:54.839Z,4.40
2019-04-01T02:34:48.805Z,4.33
2019-04-01T02:39:42.781Z,4.15
2019-04-01T02:44:36.733Z,4.06
2019-04-01T02:49:30.693Z,3.93
2019-04-01T02:54:24.661Z,3.87
2019-04-01T02:59:18.635Z,3.77
2019-04-01T03:04:12.607Z,3.75
2019-04-01T03:09:06.603Z,3.65
2019-04-01T03:14:00.687Z,3.62
2019-04-01T03:18:54.666Z,3.55
2019-04-01T03:23:48.722Z,3.44
2019-04-01T03:28:42.805Z,3.41
2019-04-01T03:33:36.783Z,3.34
2019-04-01T03:38:30.714Z,3.25
2019-04-01T03:43:24.786Z,3.20
2019-04-01T03:48:18.768Z,3.14
2019-04-01T03:53:12.844Z,3.05
2019-04-01T03:58:06.829Z,3.03
2019-04-01T04:03:00.774Z,2.97
2019-04-01T04:07:54.788Z,2.92
2019-04-01T04:12:48.734Z,2.92
2019-04-01T04:17:42.918Z,2.85
2019-04-01T04:22:36.877Z,2.75
2019-04-01T04:27:30.853Z,2.68
2019-04-01T04:32:24.824Z,2.70
2019-04-01T04:37:18.885Z,2.69
2019-04-01T04:42:12.825Z,2.59
2019-04-01T04:47:06.914Z,2.51
2019-04-01T04:52:04.394Z,2.45
2019-04-01T04:56:56.842Z,2.42
2019-04-01T05:01:50.801Z,2.39
2019-04-01T05:06:44.869Z,2.34
2019-04-01T05:11:38.796Z,2.37
2019-04-01T05:16:32.986Z,2.32
2019-04-01T05:21:27.560Z,2.44
2019-04-01T05:26:21.862Z,2.43
2019-04-01T05:31:18.559Z,2.45
2019-04-01T05:36:12.813Z,2.52
2019-04-01T05:41:06.879Z,2.58
2019-04-01T05:46:01.071Z,2.73
2019-04-01T05:50:55.345Z,2.88
2019-04-01T05:55:49.404Z,2.99
2019-04-01T06:00:57.358Z,3.13
2019-04-01T06:05:51.452Z,3.30
2019-04-01T06:10:45.662Z,3.43
2019-04-01T06:15:39.684Z,3.63
2019-04-01T06:20:33.800Z,3.72
2019-04-01T06:25:27.941Z,3.85
2019-04-01T06:30:22.133Z,4.00
2019-04-01T06:35:16.181Z,4.13
2019-04-01T06:40:10.350Z,4.30
2019-04-01T06:45:05.105Z,4.49
2019-04-01T06:49:59.171Z,4.71
2019-04-01T06:54:53.341Z,4.91
2019-04-01T06:59:47.453Z,4.99
2019-04-01T07:04:41.735Z,5.14
2019-04-01T07:09:35.859Z,5.36
2019-04-01T07:14:29.820Z,5.58
2019-04-01T07:19:23.897Z,5.79
2019-04-01T07:24:17.963Z,6.02
2019-04-01T07:29:11.934Z,6.26
2019-04-01T07:34:06.016Z,6.48
2019-04-01T07:39:00.099Z,6.74
2019-04-01T07:43:54.082Z,6.95
2019-04-01T07:48:48.281Z,7.19
2019-04-01T07:53:42.416Z,7.47
2019-04-01T07:58:37.080Z,7.72
2019-04-01T08:03:31.194Z,7.94
2019-04-01T08:08:25.312Z,8.16
2019-04-01T08:13:19.409Z,8.39
2019-04-01T08:18:13.583Z,8.80
2019-04-01T08:23:07.534Z,9.06
2019-04-01T08:28:01.634Z,9.34
2019-04-01T08:32:55.841Z,9.60
2019-04-01T08:37:49.793Z,9.83
2019-04-01T08:42:43.744Z,10.07
2019-04-01T08:47:38.148Z,10.32
2019-04-01T08:52:32.151Z,10.45
2019-04-01T08:57:26.230Z,10.69
2019-04-01T09:02:20.217Z,10.92
2019-04-01T09:07:14.237Z,11.00
2019-04-01T09:12:08.418Z,11.36
2019-04-01T09:17:02.491Z,11.53
2019-04-01T09:21:56.667Z,11.80
2019-04-01T09:26:50.747Z,12.01
2019-04-01T09:31:44.813Z,12.22
2019-04-01T09:36:38.798Z,12.40
2019-04-01T09:41:33.227Z,12.34
2019-04-01T09:46:27.202Z,12.80
2019-04-01T09:51:21.582Z,13.04
2019-04-01T09:56:15.566Z,13.23
2019-04-01T10:01:09.533Z,13.33
2019-04-01T10:06:03.598Z,13.57
2019-04-01T10:10:57.617Z,14.00
2019-04-01T10:15:51.591Z,14.50
2019-04-01T10:20:45.689Z,14.94
2019-04-01T10:25:39.688Z,15.43
2019-04-01T10:30:33.769Z,16.04
2019-04-01T10:35:27.758Z,16.19
2019-04-01T10:40:21.832Z,17.05
2019-04-01T10:45:16.424Z,17.93
2019-04-01T10:50:10.808Z,19.61
2019-04-01T10:55:05.675Z,21.30
2019-04-01T10:59:59.778Z,22.90
2019-04-01T11:04:53.978Z,25.47
2019-04-01T11:09:48.197Z,26.44
2019-04-01T11:14:42.206Z,27.55
2019-04-01T11:19:36.403Z,28.70
2019-04-01T11:24:30.607Z,30.21
2019-04-01T11:29:25.750Z,30.78
2019-04-01T11:34:20.136Z,31.00
2019-04-01T11:39:14.103Z,32.86
2019-04-01T11:44:08.176Z,32.19
2019-04-01T11:49:02.227Z,34.62
2019-04-01T11:53:56.280Z,35.60
2019-04-01T11:58:50.354Z,35.64
2019-04-01T12:03:44.342Z,35.93
2019-04-01T12:08:38.556Z,37.41
2019-04-01T12:13:32.547Z,36.66
2019-04-01T12:18:26.886Z,38.74
2019-04-01T12:23:21.017Z,37.27
2019-04-01T12:28:15.123Z,36.53
2019-04-01T12:33:09.158Z,38.04
2019-04-01T12:38:03.763Z,37.32
2019-04-01T12:42:57.762Z,38.53
2019-04-01T12:47:51.978Z,38.95
2019-04-01T12:52:46.313Z,39.44
2019-04-01T12:57:41.224Z,39.11
2019-04-01T13:02:35.291Z,39.50
2019-04-01T13:07:29.445Z,41.16
2019-04-01T13:12:27.165Z,40.78
2019-04-01T13:17:20.958Z,41.26
2019-04-01T13:22:15.267Z,41.93
2019-04-01T13:27:09.553Z,40.17
2019-04-01T13:32:03.641Z,41.71
2019-04-01T13:36:57.636Z,41.45
2019-04-01T13:41:51.602Z,41.86
2019-04-01T13:46:48.572Z,41.54
2019-04-01T13:51:43.751Z,43.10
2019-04-01T13:56:37.627Z,43.23
2019-04-01T14:01:31.616Z,43.30
2019-04-01T14:06:25.813Z,42.46
2019-04-01T14:11:19.799Z,44.43
2019-04-01T14:16:13.934Z,44.39
2019-04-01T14:21:16.287Z,44.04
2019-04-01T14:26:03.931Z,42.74
2019-04-01T14:30:57.973Z,43.10
2019-04-01T14:35:51.984Z,44.15
2019-04-01T14:40:46.073Z,43.71
2019-04-01T14:45:40.123Z,43.06
2019-04-01T14:50:34.100Z,42.53
2019-04-01T14:55:28.103Z,43.98
2019-04-01T15:00:22.331Z,44.86
2019-04-01T15:05:16.459Z,44.40
2019-04-01T15:10:10.783Z,45.07
2019-04-01T15:15:06.947Z,44.46
2019-04-01T15:20:01.938Z,44.90
2019-04-01T15:24:55.948Z,44.96
2019-04-01T15:29:49.944Z,45.39
2019-04-01T15:34:43.968Z,43.97
2019-04-01T15:39:38.202Z,43.63
2019-04-01T15:44:32.273Z,44.88
2019-04-01T15:49:26.371Z,45.31
2019-04-01T15:54:20.365Z,43.91
2019-04-01T15:59:14.440Z,43.57
2019-04-01T16:04:08.627Z,44.54
2019-04-01T16:09:05.269Z,44.17
2019-04-01T16:13:59.273Z,43.87
2019-04-01T16:18:53.246Z,41.83
2019-04-01T16:23:47.572Z,42.09
2019-04-01T16:28:41.603Z,42.26
2019-04-01T16:33:35.608Z,40.37
2019-04-01T16:38:29.572Z,38.36
2019-04-01T16:43:23.580Z,39.72
2019-04-01T16:48:17.674Z,40.13
2019-04-01T16:53:11.673Z,39.53
2019-04-01T16:58:05.671Z,39.22
2019-04-01T17:02:59.758Z,37.85
2019-04-01T17:07:53.808Z,31.66
2019-04-01T17:12:47.941Z,26.00
2019-04-01T17:17:42.098Z,24.24
2019-04-01T17:22:36.295Z,22.99
2019-04-01T17:27:30.398Z,22.22
2019-04-01T17:32:27.266Z,21.39
2019-04-01T17:37:21.482Z,21.05
2019-04-01T17:42:16.974Z,20.39
2019-04-01T17:47:11.241Z,19.64
2019-04-01T17:52:05.534Z,19.10
2019-04-01T17:56:59.656Z,18.66
2019-04-01T18:01:56.867Z,18.14
2019-04-01T18:06:49.634Z,17.71
2019-04-01T18:15:45.235Z,16.95
2019-04-01T18:20:39.424Z,16.51
2019-04-01T18:25:33.621Z,16.15
2019-04-01T18:30:27.957Z,15.80
2019-04-01T18:35:25.318Z,15.46
2019-04-01T18:40:32.022Z,15.16
2019-04-01T18:45:15.703Z,14.82
2019-04-01T18:50:09.931Z,14.55
2019-04-01T18:55:07.778Z,14.36
2019-04-01T19:00:02.598Z,14.15
2019-04-01T19:04:56.731Z,13.90
2019-04-01T19:09:50.839Z,13.66
2019-04-01T19:14:47.899Z,13.49
2019-04-01T19:19:42.758Z,13.31
2019-04-01T19:24:37.261Z,13.07
2019-04-01T19:29:31.299Z,12.90
2019-04-01T19:34:25.380Z,12.74
2019-04-01T19:39:19.382Z,12.53
2019-04-01T19:44:14.271Z,12.36
2019-04-01T19:49:08.727Z,12.18
2019-04-01T19:54:02.855Z,12.05
2019-04-01T19:58:56.969Z,11.98
2019-04-01T20:03:51.177Z,11.91
2019-04-01T20:08:48.172Z,11.80
2019-04-01T20:13:42.864Z,11.76
2019-04-01T20:18:37.031Z,11.76
2019-04-01T20:23:31.214Z,11.83
2019-04-01T20:28:25.334Z,11.67
2019-04-01T20:33:20.662Z,11.65
2019-04-01T20:38:15.213Z,11.66
2019-04-01T20:43:09.206Z,11.59
2019-04-01T20:48:04.440Z,11.65
2019-04-01T20:52:58.988Z,11.69
2019-04-01T20:57:53.000Z,11.57
2019-04-01T21:02:46.969Z,11.57
2019-04-01T21:07:41.193Z,11.58
2019-04-01T21:12:36.961Z,11.58
2019-04-01T21:17:31.271Z,11.53
2019-04-01T21:22:25.250Z,11.52
2019-04-01T21:27:19.239Z,11.44
2019-04-01T21:32:13.227Z,11.38
2019-04-01T21:37:07.218Z,11.30
2019-04-01T21:42:01.344Z,11.24
2019-04-01T21:46:55.444Z,11.25
2019-04-01T21:51:49.452Z,11.16
2019-04-01T21:56:43.535Z,11.10
2019-04-01T22:01:37.630Z,11.04
2019-04-01T22:06:31.611Z,11.06
2019-04-01T22:11:25.627Z,11.05
2019-04-01T22:16:19.723Z,11.03
2019-04-01T22:21:13.713Z,10.91
2019-04-01T22:26:07.773Z,10.82
2019-04-01T22:31:01.882Z,10.66
2019-04-01T22:35:55.827Z,10.58
2019-04-01T22:40:49.829Z,10.54
2019-04-01T22:45:43.828Z,10.45
2019-04-01T22:50:38.264Z,10.38
2019-04-01T22:55:33.337Z,10.27
2019-04-01T23:00:27.374Z,10.19
2019-04-01T23:05:21.393Z,10.13
2019-04-01T23:10:15.511Z,10.05
2019-04-01T23:15:09.762Z,9.93
2019-04-01T23:20:05.529Z,9.87
2019-04-01T23:24:59.612Z,9.76
2019-04-01T23:29:53.688Z,9.68
2019-04-01T23:34:47.875Z,9.62
2019-04-01T23:39:41.841Z,9.56
2019-04-01T23:44:35.809Z,9.48
2019-04-01T23:49:29.821Z,9.43
2019-04-01T23:54:23.932Z,9.37
2019-04-01T23:59:18.004Z,9.30
